sensor_id;sensor_type;location;lat;lon;timestamp;P1;durP1;ratioP1;P2;durP2;ratioP2
75139;SDS011;63714;55.812;37.658;2023-01-15T00:01:33;10.75;;;5.07;;
75139;SDS011;63714;55.812;37.658;2023-01-15T00:04:00;13.65;;;6.28;;
75139;SDS011;63714;55.812;37.658;2023-01-15T00:06:30;17.15;;;7.93;;
75139;SDS011;63714;55.812;37.658;2023-01-15T00:08:59;14.50;;;6.95;;
75139;SDS011;63714;55.812;37.658;2023-01-15T00:11:24;13.82;;;6.15;;
75139;SDS011;63714;55.812;37.658;2023-01-15T00:13:50;11.57;;;6.28;;
75139;SDS011;63714;55.812;37.658;2023-01-15T00:16:20;13.10;;;5.28;;
75139;SDS011;63714;55.812;37.658;2023-01-15T00:18:51;14.45;;;6.20;;
75139;SDS011;63714;55.812;37.658;2023-01-15T00:21:20;15.82;;;7.07;;
75139;SDS011;63714;55.812;37.658;2023-01-15T00:23:46;16.13;;;6.28;;
75139;SDS011;63714;55.812;37.658;2023-01-15T00:26:31;12.23;;;6.03;;
75139;SDS011;63714;55.812;37.658;2023-01-15T00:29:16;13.35;;;5.88;;
75139;SDS011;63714;55.812;37.658;2023-01-15T00:31:43;14.57;;;6.53;;
75139;SDS011;63714;55.812;37.658;2023-01-15T00:34:15;9.98;;;4.90;;
75139;SDS011;63714;55.812;37.658;2023-01-15T00:36:41;12.20;;;4.93;;
75139;SDS011;63714;55.812;37.658;2023-01-15T00:39:06;12.63;;;5.50;;
75139;SDS011;63714;55.812;37.658;2023-01-15T00:41:32;9.73;;;4.90;;
75139;SDS011;63714;55.812;37.658;2023-01-15T00:43:58;11.73;;;5.82;;
75139;SDS011;63714;55.812;37.658;2023-01-15T00:46:23;9.60;;;5.20;;
75139;SDS011;63714;55.812;37.658;2023-01-15T00:48:49;11.00;;;5.50;;
75139;SDS011;63714;55.812;37.658;2023-01-15T00:51:15;10.50;;;5.22;;
75139;SDS011;63714;55.812;37.658;2023-01-15T00:53:40;10.13;;;5.38;;
75139;SDS011;63714;55.812;37.658;2023-01-15T00:56:06;12.30;;;5.93;;
75139;SDS011;63714;55.812;37.658;2023-01-15T00:58:32;14.85;;;5.57;;
75139;SDS011;63714;55.812;37.658;2023-01-15T01:00:58;9.90;;;5.00;;
75139;SDS011;63714;55.812;37.658;2023-01-15T01:03:25;11.30;;;5.63;;
75139;SDS011;63714;55.812;37.658;2023-01-15T01:05:51;16.33;;;5.72;;
75139;SDS011;63714;55.812;37.658;2023-01-15T01:08:17;10.75;;;5.05;;
75139;SDS011;63714;55.812;37.658;2023-01-15T01:10:43;10.95;;;5.10;;
75139;SDS011;63714;55.812;37.658;2023-01-15T01:13:10;13.32;;;5.35;;
75139;SDS011;63714;55.812;37.658;2023-01-15T01:15:36;13.30;;;5.97;;
75139;SDS011;63714;55.812;37.658;2023-01-15T01:18:03;11.13;;;5.28;;
75139;SDS011;63714;55.812;37.658;2023-01-15T01:20:30;12.95;;;6.13;;
75139;SDS011;63714;55.812;37.658;2023-01-15T01:22:56;9.20;;;5.72;;
75139;SDS011;63714;55.812;37.658;2023-01-15T01:25:21;14.30;;;5.35;;
75139;SDS011;63714;55.812;37.658;2023-01-15T01:27:47;15.02;;;6.05;;
75139;SDS011;63714;55.812;37.658;2023-01-15T01:30:13;12.88;;;5.47;;
75139;SDS011;63714;55.812;37.658;2023-01-15T01:32:39;12.75;;;5.47;;
75139;SDS011;63714;55.812;37.658;2023-01-15T01:35:08;10.50;;;5.88;;
75139;SDS011;63714;55.812;37.658;2023-01-15T01:37:34;13.68;;;6.13;;
75139;SDS011;63714;55.812;37.658;2023-01-15T01:40:00;12.82;;;6.15;;
75139;SDS011;63714;55.812;37.658;2023-01-15T01:42:25;10.55;;;4.63;;
75139;SDS011;63714;55.812;37.658;2023-01-15T01:47:20;14.77;;;6.07;;
75139;SDS011;63714;55.812;37.658;2023-01-15T01:49:53;17.52;;;7.28;;
75139;SDS011;63714;55.812;37.658;2023-01-15T01:52:28;11.63;;;6.25;;
75139;SDS011;63714;55.812;37.658;2023-01-15T01:55:01;14.85;;;6.13;;
75139;SDS011;63714;55.812;37.658;2023-01-15T01:57:29;13.90;;;5.88;;
75139;SDS011;63714;55.812;37.658;2023-01-15T01:59:55;16.50;;;6.30;;
75139;SDS011;63714;55.812;37.658;2023-01-15T02:02:22;12.70;;;6.30;;
75139;SDS011;63714;55.812;37.658;2023-01-15T02:04:48;10.55;;;5.35;;
75139;SDS011;63714;55.812;37.658;2023-01-15T02:07:14;13.63;;;5.65;;
75139;SDS011;63714;55.812;37.658;2023-01-15T02:09:40;14.85;;;5.63;;
75139;SDS011;63714;55.812;37.658;2023-01-15T02:12:39;14.23;;;6.38;;
75139;SDS011;63714;55.812;37.658;2023-01-15T02:20:40;14.77;;;7.22;;
75139;SDS011;63714;55.812;37.658;2023-01-15T02:23:16;9.68;;;4.95;;
75139;SDS011;63714;55.812;37.658;2023-01-15T02:28:56;15.52;;;6.00;;
75139;SDS011;63714;55.812;37.658;2023-01-15T02:31:33;13.52;;;5.28;;
75139;SDS011;63714;55.812;37.658;2023-01-15T02:36:40;11.60;;;5.35;;
75139;SDS011;63714;55.812;37.658;2023-01-15T02:39:11;9.02;;;5.13;;
75139;SDS011;63714;55.812;37.658;2023-01-15T02:41:40;5.85;;;3.75;;
75139;SDS011;63714;55.812;37.658;2023-01-15T02:44:10;14.32;;;5.32;;
75139;SDS011;63714;55.812;37.658;2023-01-15T02:46:37;12.57;;;5.28;;
75139;SDS011;63714;55.812;37.658;2023-01-15T02:49:04;15.75;;;5.53;;
75139;SDS011;63714;55.812;37.658;2023-01-15T02:51:37;13.68;;;5.07;;
75139;SDS011;63714;55.812;37.658;2023-01-15T02:54:10;13.75;;;5.30;;
75139;SDS011;63714;55.812;37.658;2023-01-15T02:56:39;9.98;;;5.07;;
75139;SDS011;63714;55.812;37.658;2023-01-15T02:59:09;14.63;;;5.70;;
75139;SDS011;63714;55.812;37.658;2023-01-15T03:01:42;13.02;;;5.78;;
75139;SDS011;63714;55.812;37.658;2023-01-15T03:04:25;10.98;;;5.85;;
75139;SDS011;63714;55.812;37.658;2023-01-15T03:09:54;15.90;;;5.90;;
75139;SDS011;63714;55.812;37.658;2023-01-15T03:12:44;11.35;;;4.20;;
75139;SDS011;63714;55.812;37.658;2023-01-15T03:15:48;16.60;;;5.63;;
75139;SDS011;63714;55.812;37.658;2023-01-15T03:18:43;13.35;;;5.97;;
75139;SDS011;63714;55.812;37.658;2023-01-15T03:21:30;13.90;;;6.05;;
75139;SDS011;63714;55.812;37.658;2023-01-15T03:24:04;11.73;;;5.57;;
75139;SDS011;63714;55.812;37.658;2023-01-15T03:28:58;14.70;;;6.13;;
75139;SDS011;63714;55.812;37.658;2023-01-15T03:31:27;11.05;;;6.10;;
75139;SDS011;63714;55.812;37.658;2023-01-15T03:33:53;17.42;;;6.22;;
75139;SDS011;63714;55.812;37.658;2023-01-15T03:36:18;12.63;;;4.53;;
75139;SDS011;63714;55.812;37.658;2023-01-15T03:38:44;12.10;;;6.57;;
75139;SDS011;63714;55.812;37.658;2023-01-15T03:41:18;14.02;;;6.18;;
75139;SDS011;63714;55.812;37.658;2023-01-15T03:43:49;15.65;;;6.53;;
75139;SDS011;63714;55.812;37.658;2023-01-15T03:46:27;14.57;;;6.57;;
75139;SDS011;63714;55.812;37.658;2023-01-15T03:52:49;15.13;;;5.72;;
75139;SDS011;63714;55.812;37.658;2023-01-15T03:55:10;14.27;;;5.80;;
75139;SDS011;63714;55.812;37.658;2023-01-15T03:58:04;14.90;;;6.60;;
75139;SDS011;63714;55.812;37.658;2023-01-15T04:00:37;15.10;;;5.60;;
75139;SDS011;63714;55.812;37.658;2023-01-15T04:03:08;12.00;;;5.30;;
75139;SDS011;63714;55.812;37.658;2023-01-15T04:05:35;17.35;;;6.32;;
75139;SDS011;63714;55.812;37.658;2023-01-15T04:08:02;17.88;;;6.00;;
75139;SDS011;63714;55.812;37.658;2023-01-15T04:10:28;12.65;;;6.50;;
75139;SDS011;63714;55.812;37.658;2023-01-15T04:12:53;14.18;;;5.30;;
75139;SDS011;63714;55.812;37.658;2023-01-15T04:15:19;12.93;;;5.40;;
75139;SDS011;63714;55.812;37.658;2023-01-15T04:17:45;11.88;;;5.95;;
75139;SDS011;63714;55.812;37.658;2023-01-15T04:20:11;21.67;;;6.75;;
75139;SDS011;63714;55.812;37.658;2023-01-15T04:22:37;17.55;;;5.80;;
75139;SDS011;63714;55.812;37.658;2023-01-15T04:25:03;13.25;;;5.85;;
75139;SDS011;63714;55.812;37.658;2023-01-15T04:27:30;12.48;;;6.60;;
75139;SDS011;63714;55.812;37.658;2023-01-15T04:29:55;21.23;;;7.15;;
75139;SDS011;63714;55.812;37.658;2023-01-15T04:32:21;17.20;;;6.38;;
75139;SDS011;63714;55.812;37.658;2023-01-15T04:34:47;17.30;;;6.55;;
75139;SDS011;63714;55.812;37.658;2023-01-15T04:37:13;20.98;;;7.28;;
75139;SDS011;63714;55.812;37.658;2023-01-15T04:39:40;19.33;;;6.57;;
75139;SDS011;63714;55.812;37.658;2023-01-15T04:42:05;20.65;;;6.43;;
75139;SDS011;63714;55.812;37.658;2023-01-15T04:44:52;15.93;;;5.45;;
75139;SDS011;63714;55.812;37.658;2023-01-15T04:47:17;13.50;;;5.75;;
75139;SDS011;63714;55.812;37.658;2023-01-15T04:49:43;20.33;;;6.53;;
75139;SDS011;63714;55.812;37.658;2023-01-15T04:52:08;16.25;;;6.65;;
75139;SDS011;63714;55.812;37.658;2023-01-15T04:54:34;18.35;;;6.47;;
75139;SDS011;63714;55.812;37.658;2023-01-15T04:57:00;15.27;;;6.32;;
75139;SDS011;63714;55.812;37.658;2023-01-15T04:59:26;18.42;;;7.18;;
75139;SDS011;63714;55.812;37.658;2023-01-15T05:01:52;10.38;;;5.82;;
75139;SDS011;63714;55.812;37.658;2023-01-15T05:04:17;16.35;;;6.63;;
75139;SDS011;63714;55.812;37.658;2023-01-15T05:06:43;14.07;;;6.53;;
75139;SDS011;63714;55.812;37.658;2023-01-15T05:09:09;19.63;;;7.75;;
75139;SDS011;63714;55.812;37.658;2023-01-15T05:11:35;24.77;;;8.07;;
75139;SDS011;63714;55.812;37.658;2023-01-15T05:14:02;16.90;;;6.93;;
75139;SDS011;63714;55.812;37.658;2023-01-15T05:16:28;19.83;;;7.00;;
75139;SDS011;63714;55.812;37.658;2023-01-15T05:18:58;23.42;;;7.90;;
75139;SDS011;63714;55.812;37.658;2023-01-15T05:21:27;16.73;;;7.35;;
75139;SDS011;63714;55.812;37.658;2023-01-15T05:23:59;17.83;;;7.35;;
75139;SDS011;63714;55.812;37.658;2023-01-15T05:26:26;18.20;;;8.63;;
75139;SDS011;63714;55.812;37.658;2023-01-15T05:28:55;17.75;;;7.03;;
75139;SDS011;63714;55.812;37.658;2023-01-15T05:31:22;20.25;;;7.00;;
75139;SDS011;63714;55.812;37.658;2023-01-15T05:33:49;14.00;;;5.90;;
75139;SDS011;63714;55.812;37.658;2023-01-15T05:36:16;18.95;;;6.30;;
75139;SDS011;63714;55.812;37.658;2023-01-15T05:38:45;11.75;;;5.80;;
75139;SDS011;63714;55.812;37.658;2023-01-15T05:41:12;17.20;;;7.30;;
75139;SDS011;63714;55.812;37.658;2023-01-15T05:43:59;13.52;;;6.57;;
75139;SDS011;63714;55.812;37.658;2023-01-15T05:46:27;18.83;;;7.00;;
75139;SDS011;63714;55.812;37.658;2023-01-15T05:48:53;16.50;;;6.88;;
75139;SDS011;63714;55.812;37.658;2023-01-15T05:51:18;16.88;;;6.68;;
75139;SDS011;63714;55.812;37.658;2023-01-15T05:53:44;17.20;;;6.45;;
75139;SDS011;63714;55.812;37.658;2023-01-15T05:56:10;14.65;;;6.20;;
75139;SDS011;63714;55.812;37.658;2023-01-15T05:58:36;18.75;;;6.85;;
75139;SDS011;63714;55.812;37.658;2023-01-15T06:01:06;16.90;;;6.15;;
75139;SDS011;63714;55.812;37.658;2023-01-15T06:03:32;19.58;;;7.03;;
75139;SDS011;63714;55.812;37.658;2023-01-15T06:05:58;17.42;;;6.05;;
75139;SDS011;63714;55.812;37.658;2023-01-15T06:08:24;18.30;;;6.65;;
75139;SDS011;63714;55.812;37.658;2023-01-15T06:10:49;22.50;;;6.28;;
75139;SDS011;63714;55.812;37.658;2023-01-15T06:13:15;18.52;;;6.38;;
75139;SDS011;63714;55.812;37.658;2023-01-15T06:15:42;22.20;;;6.57;;
75139;SDS011;63714;55.812;37.658;2023-01-15T06:18:09;22.60;;;8.93;;
75139;SDS011;63714;55.812;37.658;2023-01-15T06:20:35;17.35;;;6.53;;
75139;SDS011;63714;55.812;37.658;2023-01-15T06:23:04;17.95;;;7.30;;
75139;SDS011;63714;55.812;37.658;2023-01-15T06:25:33;21.92;;;6.45;;
75139;SDS011;63714;55.812;37.658;2023-01-15T06:28:02;15.07;;;6.10;;
75139;SDS011;63714;55.812;37.658;2023-01-15T06:30:28;22.80;;;7.57;;
75139;SDS011;63714;55.812;37.658;2023-01-15T06:32:54;22.48;;;6.97;;
75139;SDS011;63714;55.812;37.658;2023-01-15T06:35:20;15.20;;;6.93;;
75139;SDS011;63714;55.812;37.658;2023-01-15T06:37:47;19.50;;;8.10;;
75139;SDS011;63714;55.812;37.658;2023-01-15T06:40:14;21.50;;;9.05;;
75139;SDS011;63714;55.812;37.658;2023-01-15T06:42:40;20.80;;;8.10;;
75139;SDS011;63714;55.812;37.658;2023-01-15T06:45:24;22.77;;;7.82;;
75139;SDS011;63714;55.812;37.658;2023-01-15T06:48:08;24.58;;;8.23;;
75139;SDS011;63714;55.812;37.658;2023-01-15T06:50:33;19.45;;;7.68;;
75139;SDS011;63714;55.812;37.658;2023-01-15T06:52:59;22.20;;;7.78;;
75139;SDS011;63714;55.812;37.658;2023-01-15T06:55:24;24.83;;;8.02;;
75139;SDS011;63714;55.812;37.658;2023-01-15T06:57:50;21.20;;;7.75;;
75139;SDS011;63714;55.812;37.658;2023-01-15T07:00:16;18.67;;;7.93;;
75139;SDS011;63714;55.812;37.658;2023-01-15T07:02:42;23.77;;;8.57;;
75139;SDS011;63714;55.812;37.658;2023-01-15T07:05:08;25.20;;;8.43;;
75139;SDS011;63714;55.812;37.658;2023-01-15T07:07:33;20.40;;;7.80;;
75139;SDS011;63714;55.812;37.658;2023-01-15T07:09:59;23.38;;;7.30;;
75139;SDS011;63714;55.812;37.658;2023-01-15T07:12:25;20.52;;;7.38;;
75139;SDS011;63714;55.812;37.658;2023-01-15T07:14:51;20.95;;;6.60;;
75139;SDS011;63714;55.812;37.658;2023-01-15T07:17:17;25.45;;;6.85;;
75139;SDS011;63714;55.812;37.658;2023-01-15T07:19:43;23.20;;;9.45;;
75139;SDS011;63714;55.812;37.658;2023-01-15T07:22:10;18.73;;;7.05;;
75139;SDS011;63714;55.812;37.658;2023-01-15T07:24:36;21.73;;;7.88;;
75139;SDS011;63714;55.812;37.658;2023-01-15T07:27:02;17.15;;;7.88;;
75139;SDS011;63714;55.812;37.658;2023-01-15T07:29:28;23.02;;;8.13;;
75139;SDS011;63714;55.812;37.658;2023-01-15T07:31:54;17.15;;;7.07;;
75139;SDS011;63714;55.812;37.658;2023-01-15T07:34:20;28.58;;;8.77;;
75139;SDS011;63714;55.812;37.658;2023-01-15T07:36:46;28.42;;;8.65;;
75139;SDS011;63714;55.812;37.658;2023-01-15T07:39:12;18.85;;;7.07;;
75139;SDS011;63714;55.812;37.658;2023-01-15T07:41:38;23.00;;;7.70;;
75139;SDS011;63714;55.812;37.658;2023-01-15T07:44:22;19.60;;;6.93;;
75139;SDS011;63714;55.812;37.658;2023-01-15T07:47:17;15.18;;;6.05;;
75139;SDS011;63714;55.812;37.658;2023-01-15T07:50:04;17.70;;;7.03;;
75139;SDS011;63714;55.812;37.658;2023-01-15T07:52:31;26.55;;;8.10;;
75139;SDS011;63714;55.812;37.658;2023-01-15T07:54:57;21.40;;;7.25;;
75139;SDS011;63714;55.812;37.658;2023-01-15T07:57:23;20.42;;;6.63;;
75139;SDS011;63714;55.812;37.658;2023-01-15T07:59:48;24.20;;;6.95;;
75139;SDS011;63714;55.812;37.658;2023-01-15T08:02:15;17.08;;;7.13;;
75139;SDS011;63714;55.812;37.658;2023-01-15T08:04:41;22.23;;;8.45;;
75139;SDS011;63714;55.812;37.658;2023-01-15T08:07:07;26.85;;;8.82;;
75139;SDS011;63714;55.812;37.658;2023-01-15T08:09:34;21.27;;;8.13;;
75139;SDS011;63714;55.812;37.658;2023-01-15T08:12:00;20.40;;;8.00;;
75139;SDS011;63714;55.812;37.658;2023-01-15T08:14:45;22.27;;;8.32;;
75139;SDS011;63714;55.812;37.658;2023-01-15T08:17:33;25.75;;;9.27;;
75139;SDS011;63714;55.812;37.658;2023-01-15T08:20:00;23.02;;;9.95;;
75139;SDS011;63714;55.812;37.658;2023-01-15T08:22:28;24.05;;;8.23;;
75139;SDS011;63714;55.812;37.658;2023-01-15T08:24:53;20.50;;;7.55;;
75139;SDS011;63714;55.812;37.658;2023-01-15T08:27:19;13.18;;;6.15;;
75139;SDS011;63714;55.812;37.658;2023-01-15T08:29:44;22.00;;;7.85;;
75139;SDS011;63714;55.812;37.658;2023-01-15T08:32:10;20.75;;;7.78;;
75139;SDS011;63714;55.812;37.658;2023-01-15T08:34:36;14.15;;;7.43;;
75139;SDS011;63714;55.812;37.658;2023-01-15T08:37:02;17.70;;;6.97;;
75139;SDS011;63714;55.812;37.658;2023-01-15T08:39:28;20.92;;;7.32;;
75139;SDS011;63714;55.812;37.658;2023-01-15T08:41:54;18.45;;;7.18;;
75139;SDS011;63714;55.812;37.658;2023-01-15T08:44:21;22.55;;;6.97;;
75139;SDS011;63714;55.812;37.658;2023-01-15T08:46:48;7.97;;;3.70;;
75139;SDS011;63714;55.812;37.658;2023-01-15T08:49:15;19.63;;;7.25;;
75139;SDS011;63714;55.812;37.658;2023-01-15T08:51:42;17.58;;;9.10;;
75139;SDS011;63714;55.812;37.658;2023-01-15T08:54:11;14.43;;;7.20;;
75139;SDS011;63714;55.812;37.658;2023-01-15T08:56:37;17.98;;;7.60;;
75139;SDS011;63714;55.812;37.658;2023-01-15T08:59:03;21.63;;;8.32;;
75139;SDS011;63714;55.812;37.658;2023-01-15T09:01:30;19.75;;;7.57;;
75139;SDS011;63714;55.812;37.658;2023-01-15T09:03:56;17.10;;;7.70;;
75139;SDS011;63714;55.812;37.658;2023-01-15T09:06:23;19.48;;;7.30;;
75139;SDS011;63714;55.812;37.658;2023-01-15T09:08:48;20.08;;;8.45;;
75139;SDS011;63714;55.812;37.658;2023-01-15T09:11:14;18.75;;;7.38;;
75139;SDS011;63714;55.812;37.658;2023-01-15T09:13:40;15.65;;;7.75;;
75139;SDS011;63714;55.812;37.658;2023-01-15T09:16:06;15.95;;;6.38;;
75139;SDS011;63714;55.812;37.658;2023-01-15T09:18:35;21.63;;;7.50;;
75139;SDS011;63714;55.812;37.658;2023-01-15T09:21:01;20.27;;;7.75;;
75139;SDS011;63714;55.812;37.658;2023-01-15T09:23:28;21.70;;;8.93;;
75139;SDS011;63714;55.812;37.658;2023-01-15T09:25:54;18.15;;;8.07;;
75139;SDS011;63714;55.812;37.658;2023-01-15T09:28:29;20.77;;;9.10;;
75139;SDS011;63714;55.812;37.658;2023-01-15T09:30:55;18.63;;;7.78;;
75139;SDS011;63714;55.812;37.658;2023-01-15T09:33:21;19.27;;;8.23;;
75139;SDS011;63714;55.812;37.658;2023-01-15T09:35:47;19.33;;;8.90;;
75139;SDS011;63714;55.812;37.658;2023-01-15T09:38:13;23.27;;;9.75;;
75139;SDS011;63714;55.812;37.658;2023-01-15T09:40:50;16.88;;;7.97;;
75139;SDS011;63714;55.812;37.658;2023-01-15T09:46:19;23.58;;;8.40;;
75139;SDS011;63714;55.812;37.658;2023-01-15T09:51:46;18.75;;;7.55;;
75139;SDS011;63714;55.812;37.658;2023-01-15T09:55:02;16.92;;;7.30;;
75139;SDS011;63714;55.812;37.658;2023-01-15T09:57:34;25.42;;;9.38;;
75139;SDS011;63714;55.812;37.658;2023-01-15T10:00:01;18.17;;;9.32;;
75139;SDS011;63714;55.812;37.658;2023-01-15T10:02:33;15.60;;;7.20;;
75139;SDS011;63714;55.812;37.658;2023-01-15T10:10:19;20.42;;;7.97;;
75139;SDS011;63714;55.812;37.658;2023-01-15T10:12:49;14.10;;;6.07;;
75139;SDS011;63714;55.812;37.658;2023-01-15T10:18:22;23.08;;;8.25;;
75139;SDS011;63714;55.812;37.658;2023-01-15T10:26:07;15.32;;;7.03;;
75139;SDS011;63714;55.812;37.658;2023-01-15T10:37:03;21.17;;;6.68;;
75139;SDS011;63714;55.812;37.658;2023-01-15T10:39:47;16.88;;;6.40;;
75139;SDS011;63714;55.812;37.658;2023-01-15T10:45:21;13.93;;;6.20;;
75139;SDS011;63714;55.812;37.658;2023-01-15T10:47:59;13.13;;;5.93;;
75139;SDS011;63714;55.812;37.658;2023-01-15T10:50:50;16.20;;;7.03;;
75139;SDS011;63714;55.812;37.658;2023-01-15T11:01:41;15.75;;;6.38;;
75139;SDS011;63714;55.812;37.658;2023-01-15T11:04:10;13.63;;;6.22;;
75139;SDS011;63714;55.812;37.658;2023-01-15T11:06:37;13.48;;;6.35;;
75139;SDS011;63714;55.812;37.658;2023-01-15T11:09:04;16.10;;;6.07;;
75139;SDS011;63714;55.812;37.658;2023-01-15T11:11:42;10.32;;;5.05;;
75139;SDS011;63714;55.812;37.658;2023-01-15T11:14:32;13.68;;;6.38;;
75139;SDS011;63714;55.812;37.658;2023-01-15T11:17:17;19.00;;;7.13;;
75139;SDS011;63714;55.812;37.658;2023-01-15T11:20:15;17.70;;;6.25;;
75139;SDS011;63714;55.812;37.658;2023-01-15T11:23:19;13.30;;;6.45;;
75139;SDS011;63714;55.812;37.658;2023-01-15T11:25:47;15.15;;;6.10;;
75139;SDS011;63714;55.812;37.658;2023-01-15T11:28:15;14.68;;;5.40;;
75139;SDS011;63714;55.812;37.658;2023-01-15T11:30:41;13.05;;;6.25;;
75139;SDS011;63714;55.812;37.658;2023-01-15T11:33:25;14.25;;;5.93;;
75139;SDS011;63714;55.812;37.658;2023-01-15T11:35:56;12.38;;;5.15;;
75139;SDS011;63714;55.812;37.658;2023-01-15T11:38:27;14.27;;;6.28;;
75139;SDS011;63714;55.812;37.658;2023-01-15T11:40:58;16.02;;;6.35;;
75139;SDS011;63714;55.812;37.658;2023-01-15T11:43:27;14.68;;;5.50;;
75139;SDS011;63714;55.812;37.658;2023-01-15T11:46:28;12.45;;;4.90;;
75139;SDS011;63714;55.812;37.658;2023-01-15T11:49:17;15.85;;;5.57;;
75139;SDS011;63714;55.812;37.658;2023-01-15T11:52:13;13.82;;;5.40;;
75139;SDS011;63714;55.812;37.658;2023-01-15T11:54:43;9.45;;;4.88;;
75139;SDS011;63714;55.812;37.658;2023-01-15T11:57:21;10.45;;;4.30;;
75139;SDS011;63714;55.812;37.658;2023-01-15T11:59:52;10.32;;;4.50;;
75139;SDS011;63714;55.812;37.658;2023-01-15T12:02:51;13.20;;;4.40;;
75139;SDS011;63714;55.812;37.658;2023-01-15T12:05:30;13.23;;;5.43;;
75139;SDS011;63714;55.812;37.658;2023-01-15T12:08:00;13.35;;;4.93;;
75139;SDS011;63714;55.812;37.658;2023-01-15T12:10:30;9.80;;;4.32;;
75139;SDS011;63714;55.812;37.658;2023-01-15T12:13:51;9.75;;;4.20;;
75139;SDS011;63714;55.812;37.658;2023-01-15T12:16:54;11.27;;;4.47;;
75139;SDS011;63714;55.812;37.658;2023-01-15T12:20:10;15.00;;;4.90;;
75139;SDS011;63714;55.812;37.658;2023-01-15T12:22:35;14.18;;;4.40;;
75139;SDS011;63714;55.812;37.658;2023-01-15T12:28:12;13.27;;;4.35;;
75139;SDS011;63714;55.812;37.658;2023-01-15T12:31:09;11.10;;;4.57;;
75139;SDS011;63714;55.812;37.658;2023-01-15T12:33:57;10.30;;;4.25;;
75139;SDS011;63714;55.812;37.658;2023-01-15T12:36:57;10.43;;;3.85;;
75139;SDS011;63714;55.812;37.658;2023-01-15T12:39:26;12.40;;;4.22;;
75139;SDS011;63714;55.812;37.658;2023-01-15T12:42:02;8.57;;;3.60;;
75139;SDS011;63714;55.812;37.658;2023-01-15T12:44:55;12.30;;;4.13;;
75139;SDS011;63714;55.812;37.658;2023-01-15T12:47:34;12.63;;;4.35;;
75139;SDS011;63714;55.812;37.658;2023-01-15T12:53:18;11.10;;;3.88;;
75139;SDS011;63714;55.812;37.658;2023-01-15T12:58:30;11.30;;;4.07;;
75139;SDS011;63714;55.812;37.658;2023-01-15T13:04:00;9.20;;;3.72;;
75139;SDS011;63714;55.812;37.658;2023-01-15T13:06:41;10.23;;;3.78;;
75139;SDS011;63714;55.812;37.658;2023-01-15T13:11:40;11.23;;;3.30;;
75139;SDS011;63714;55.812;37.658;2023-01-15T13:14:14;8.65;;;3.30;;
75139;SDS011;63714;55.812;37.658;2023-01-15T13:19:35;9.18;;;3.38;;
75139;SDS011;63714;55.812;37.658;2023-01-15T13:22:16;7.75;;;3.38;;
75139;SDS011;63714;55.812;37.658;2023-01-15T13:24:53;10.15;;;3.33;;
75139;SDS011;63714;55.812;37.658;2023-01-15T13:30:42;11.07;;;3.63;;
75139;SDS011;63714;55.812;37.658;2023-01-15T13:33:42;8.18;;;3.55;;
75139;SDS011;63714;55.812;37.658;2023-01-15T13:36:17;10.95;;;3.67;;
75139;SDS011;63714;55.812;37.658;2023-01-15T13:38:51;11.00;;;3.47;;
75139;SDS011;63714;55.812;37.658;2023-01-15T13:41:21;7.38;;;3.45;;
75139;SDS011;63714;55.812;37.658;2023-01-15T13:44:16;7.88;;;2.83;;
75139;SDS011;63714;55.812;37.658;2023-01-15T13:46:46;14.45;;;4.00;;
75139;SDS011;63714;55.812;37.658;2023-01-15T13:49:25;6.93;;;3.22;;
75139;SDS011;63714;55.812;37.658;2023-01-15T13:51:58;11.23;;;3.05;;
75139;SDS011;63714;55.812;37.658;2023-01-15T13:54:29;8.52;;;2.40;;
75139;SDS011;63714;55.812;37.658;2023-01-15T13:57:09;6.85;;;2.97;;
75139;SDS011;63714;55.812;37.658;2023-01-15T13:59:47;9.70;;;3.40;;
75139;SDS011;63714;55.812;37.658;2023-01-15T14:04:53;6.28;;;3.40;;
75139;SDS011;63714;55.812;37.658;2023-01-15T14:07:20;8.07;;;3.03;;
75139;SDS011;63714;55.812;37.658;2023-01-15T14:20:52;8.57;;;3.72;;
75139;SDS011;63714;55.812;37.658;2023-01-15T14:34:37;7.93;;;4.30;;
75139;SDS011;63714;55.812;37.658;2023-01-15T14:37:05;9.80;;;4.05;;
75139;SDS011;63714;55.812;37.658;2023-01-15T14:39:48;9.35;;;4.05;;
75139;SDS011;63714;55.812;37.658;2023-01-15T14:47:42;8.52;;;4.50;;
75139;SDS011;63714;55.812;37.658;2023-01-15T14:50:30;7.68;;;3.92;;
75139;SDS011;63714;55.812;37.658;2023-01-15T15:01:24;11.77;;;3.92;;
75139;SDS011;63714;55.812;37.658;2023-01-15T15:04:03;11.55;;;4.32;;
75139;SDS011;63714;55.812;37.658;2023-01-15T15:06:31;13.82;;;4.90;;
75139;SDS011;63714;55.812;37.658;2023-01-15T15:09:00;9.73;;;4.32;;
75139;SDS011;63714;55.812;37.658;2023-01-15T15:11:37;8.43;;;3.55;;
75139;SDS011;63714;55.812;37.658;2023-01-15T15:14:26;9.02;;;3.88;;
75139;SDS011;63714;55.812;37.658;2023-01-15T15:16:54;12.57;;;4.47;;
75139;SDS011;63714;55.812;37.658;2023-01-15T15:19:34;10.18;;;4.15;;
75139;SDS011;63714;55.812;37.658;2023-01-15T15:22:05;12.55;;;5.35;;
75139;SDS011;63714;55.812;37.658;2023-01-15T15:24:41;8.15;;;3.90;;
75139;SDS011;63714;55.812;37.658;2023-01-15T15:27:18;8.88;;;3.85;;
75139;SDS011;63714;55.812;37.658;2023-01-15T15:29:48;9.73;;;4.18;;
75139;SDS011;63714;55.812;37.658;2023-01-15T15:32:20;8.88;;;3.83;;
75139;SDS011;63714;55.812;37.658;2023-01-15T15:34:49;8.57;;;3.65;;
75139;SDS011;63714;55.812;37.658;2023-01-15T15:37:26;7.97;;;4.13;;
75139;SDS011;63714;55.812;37.658;2023-01-15T15:40:00;10.38;;;5.00;;
75139;SDS011;63714;55.812;37.658;2023-01-15T15:42:34;9.13;;;3.90;;
75139;SDS011;63714;55.812;37.658;2023-01-15T15:50:57;7.68;;;4.35;;
75139;SDS011;63714;55.812;37.658;2023-01-15T15:53:23;13.98;;;4.50;;
75139;SDS011;63714;55.812;37.658;2023-01-15T15:55:48;13.30;;;3.75;;
75139;SDS011;63714;55.812;37.658;2023-01-15T15:58:18;9.10;;;3.67;;
75139;SDS011;63714;55.812;37.658;2023-01-15T16:03:23;9.35;;;4.70;;
75139;SDS011;63714;55.812;37.658;2023-01-15T16:06:00;11.40;;;4.55;;
75139;SDS011;63714;55.812;37.658;2023-01-15T16:08:35;8.43;;;3.55;;
75139;SDS011;63714;55.812;37.658;2023-01-15T16:11:03;10.68;;;3.90;;
75139;SDS011;63714;55.812;37.658;2023-01-15T16:13:35;13.40;;;4.32;;
75139;SDS011;63714;55.812;37.658;2023-01-15T16:16:05;7.60;;;3.42;;
75139;SDS011;63714;55.812;37.658;2023-01-15T16:18:37;10.25;;;4.72;;
75139;SDS011;63714;55.812;37.658;2023-01-15T16:21:09;7.00;;;3.28;;
75139;SDS011;63714;55.812;37.658;2023-01-15T16:23:39;8.57;;;3.58;;
75139;SDS011;63714;55.812;37.658;2023-01-15T16:26:17;10.52;;;4.53;;
75139;SDS011;63714;55.812;37.658;2023-01-15T16:29:05;10.25;;;4.75;;
75139;SDS011;63714;55.812;37.658;2023-01-15T16:31:42;8.05;;;3.88;;
75139;SDS011;63714;55.812;37.658;2023-01-15T16:34:15;11.30;;;4.15;;
75139;SDS011;63714;55.812;37.658;2023-01-15T16:36:46;8.95;;;3.80;;
75139;SDS011;63714;55.812;37.658;2023-01-15T16:41:49;13.30;;;4.40;;
75139;SDS011;63714;55.812;37.658;2023-01-15T16:44:35;9.18;;;4.40;;
75139;SDS011;63714;55.812;37.658;2023-01-15T16:47:07;18.88;;;6.13;;
75139;SDS011;63714;55.812;37.658;2023-01-15T16:49:47;13.73;;;5.75;;
75139;SDS011;63714;55.812;37.658;2023-01-15T16:54:59;13.75;;;5.68;;
75139;SDS011;63714;55.812;37.658;2023-01-15T16:57:29;15.15;;;5.95;;
75139;SDS011;63714;55.812;37.658;2023-01-15T16:59:57;12.75;;;5.45;;
75139;SDS011;63714;55.812;37.658;2023-01-15T17:02:27;13.15;;;5.50;;
75139;SDS011;63714;55.812;37.658;2023-01-15T17:04:59;16.73;;;7.00;;